createdAt,value
2022-09-06T15:35:10.365Z,96701.05
2022-09-06T15:37:38.724Z,96699.86
2022-09-06T15:40:08.007Z,96702.06
2022-09-06T15:42:37.060Z,96706.89
2022-09-06T15:45:06.417Z,96704.88
2022-09-06T15:47:35.654Z,96706.63
2022-09-06T15:50:04.325Z,96704.71
2022-09-06T15:52:32.811Z,96701.65
2022-09-06T15:55:19.657Z,96698.61
2022-09-06T15:57:48.014Z,96701.22
2022-09-06T16:00:18.128Z,96701.66
2022-09-06T16:02:46.603Z,96699.96
2022-09-06T16:05:15.094Z,96701.19
2022-09-06T16:07:44.907Z,96699.34
2022-09-06T16:10:13.348Z,96696.30
2022-09-06T16:12:41.849Z,96703.09
2022-09-06T16:15:10.946Z,96703.70
2022-09-06T16:17:39.307Z,96704.49
2022-09-06T16:20:08.001Z,96705.75
2022-09-06T16:22:37.835Z,96705.67
2022-09-06T16:25:06.617Z,96706.52
2022-09-06T16:27:34.895Z,96706.48
2022-09-06T16:30:04.421Z,96707.26
2022-09-06T16:32:32.781Z,96705.66
2022-09-06T16:35:01.488Z,96699.27
2022-09-06T16:37:30.585Z,96696.31
2022-09-06T16:39:59.012Z,96695.77
2022-09-06T16:42:27.414Z,96701.45
2022-09-06T16:44:55.734Z,96702.16
2022-09-06T16:47:24.090Z,96699.44
2022-09-06T16:49:52.446Z,96701.93
2022-09-06T16:52:20.813Z,96704.06
2022-09-06T16:54:49.087Z,96702.64
2022-09-06T16:57:17.385Z,96702.45
2022-09-06T16:59:45.703Z,96706.91
2022-09-06T17:02:14.145Z,96707.48
2022-09-06T17:04:42.856Z,96706.63
2022-09-06T17:07:11.146Z,96709.33
2022-09-06T17:09:39.476Z,96710.75
2022-09-06T17:12:07.984Z,96710.12
2022-09-06T17:14:37.197Z,96709.46
2022-09-06T17:17:05.708Z,96706.61
2022-09-06T17:19:40.407Z,96715.30
2022-09-06T17:22:13.044Z,96715.09
2022-09-06T17:24:42.902Z,96718.90
2022-09-06T17:27:11.307Z,96718.20
2022-09-06T17:29:40.382Z,96720.30
2022-09-06T17:32:12.029Z,96720.48
2022-09-06T17:34:41.541Z,96719.61
2022-09-06T17:37:10.733Z,96721.49
2022-09-06T17:39:39.254Z,96725.36
2022-09-06T17:42:07.989Z,96726.09
2022-09-06T17:44:36.402Z,96726.36
2022-09-06T17:47:13.733Z,96724.45
2022-09-06T17:49:43.310Z,96725.67
2022-09-06T17:52:12.259Z,96728.05
2022-09-06T17:54:40.595Z,96731.92
2022-09-06T17:57:08.970Z,96733.77
2022-09-06T17:59:38.711Z,96735.56
2022-09-06T18:02:07.642Z,96738.14
2022-09-06T18:04:36.085Z,96743.88
2022-09-06T18:07:04.436Z,96747.23
2022-09-06T18:09:32.822Z,96746.02
2022-09-06T18:12:02.184Z,96745.14
2022-09-06T18:14:30.681Z,96745.20
2022-09-06T18:16:59.145Z,96745.23
2022-09-06T18:19:28.127Z,96752.09
2022-09-06T18:21:57.490Z,96752.53
2022-09-06T18:24:26.119Z,96752.66
2022-09-06T18:26:55.645Z,96758.02
2022-09-06T18:29:24.050Z,96758.52
2022-09-06T18:31:54.301Z,96762.35
2022-09-06T18:34:22.872Z,96763.30
2022-09-06T18:36:51.678Z,96766.55
2022-09-06T18:39:20.674Z,96766.58
2022-09-06T18:42:01.379Z,96763.02
2022-09-06T18:44:32.586Z,96763.77
2022-09-06T18:47:04.558Z,96764.90
2022-09-06T18:49:34.007Z,96766.89
2022-09-06T18:52:04.045Z,96765.50
2022-09-06T18:54:33.411Z,96763.63
2022-09-06T18:57:01.781Z,96758.99
2022-09-06T18:59:30.178Z,96764.59
2022-09-06T19:01:58.583Z,96772.98
2022-09-06T19:04:27.262Z,96776.77
2022-09-06T19:06:55.635Z,96773.62
2022-09-06T19:09:24.021Z,96773.05
2022-09-06T19:11:53.337Z,96768.48
2022-09-06T19:14:22.304Z,96767.84
2022-09-06T19:16:52.031Z,96766.06
2022-09-06T19:19:22.022Z,96762.05
2022-09-06T19:21:50.416Z,96756.59
2022-09-06T19:24:22.794Z,96756.41
2022-09-06T19:26:53.008Z,96754.13
2022-09-06T19:29:21.732Z,96754.13
2022-09-06T19:31:50.196Z,96755.54
2022-09-06T19:34:19.276Z,96752.36
2022-09-06T19:36:49.086Z,96748.96
2022-09-06T19:39:18.004Z,96752.35
2022-09-06T19:41:47.876Z,96752.20
2022-09-06T19:44:17.564Z,96750.30
2022-09-06T19:46:47.434Z,96745.09
2022-09-06T19:49:17.805Z,96746.36
2022-09-06T19:51:49.040Z,96746.72
2022-09-06T19:54:18.241Z,96750.55
2022-09-06T19:56:47.143Z,96749.84
2022-09-06T19:59:16.642Z,96752.75
2022-09-06T20:01:46.654Z,96757.45
2022-09-06T20:04:16.058Z,96756.15
2022-09-06T20:06:44.840Z,96756.96
2022-09-06T20:09:13.778Z,96754.89
2022-09-06T20:11:43.229Z,96750.04
2022-09-06T20:14:12.557Z,96747.48
2022-09-06T20:16:42.388Z,96742.38
2022-09-06T20:19:12.740Z,96744.37
2022-09-06T20:21:41.093Z,96746.77
2022-09-06T20:24:09.581Z,96744.65
2022-09-06T20:26:38.047Z,96741.02
2022-09-06T20:29:07.328Z,96743.02
2022-09-06T20:31:36.971Z,96746.16
2022-09-06T20:34:06.590Z,96744.09
2022-09-06T20:36:35.411Z,96742.69
2022-09-06T20:39:04.587Z,96744.21
2022-09-06T20:41:34.094Z,96733.39
2022-09-06T20:44:03.014Z,96733.65
2022-09-06T20:46:35.656Z,96732.50
2022-09-06T20:49:05.010Z,96737.79
2022-09-06T20:51:36.187Z,96730.71
2022-09-06T20:54:05.702Z,96731.91
2022-09-06T20:56:39.028Z,96732.61
2022-09-06T20:59:11.274Z,96738.63
2022-09-06T21:01:42.834Z,96739.52
2022-09-06T21:04:13.492Z,96740.41
2022-09-06T21:06:42.501Z,96743.69
2022-09-06T21:09:13.598Z,96745.80
2022-09-06T21:11:42.938Z,96744.14
2022-09-06T21:14:12.838Z,96743.20
2022-09-06T21:16:41.659Z,96744.48
2022-09-06T21:19:11.551Z,96748.42
2022-09-06T21:21:40.082Z,96747.98
2022-09-06T21:24:10.376Z,96748.34
2022-09-06T21:26:39.352Z,96745.98
2022-09-06T21:29:07.735Z,96744.73
2022-09-06T21:31:37.565Z,96746.04
2022-09-06T21:34:16.338Z,96749.45
2022-09-06T21:36:45.759Z,96750.27
2022-09-06T21:39:14.971Z,96743.56
2022-09-06T21:41:44.294Z,96736.68
2022-09-06T21:44:13.153Z,96733.11
2022-09-06T21:46:42.567Z,96728.30
2022-09-06T21:49:13.726Z,96723.95
2022-09-06T21:51:42.275Z,96723.00
2022-09-06T21:54:10.696Z,96715.77
2022-09-06T21:56:40.577Z,96715.23
2022-09-06T21:59:09.506Z,96714.09
2022-09-06T22:01:41.040Z,96710.95
2022-09-06T22:04:10.693Z,96706.09
2022-09-06T22:06:39.222Z,96705.71
2022-09-06T22:09:11.680Z,96700.15
2022-09-06T22:11:43.604Z,96704.20
2022-09-06T22:14:15.293Z,96702.09
2022-09-06T22:16:44.080Z,96700.77
2022-09-06T22:19:13.041Z,96702.09
2022-09-06T22:21:41.423Z,96704.21
2022-09-06T22:24:11.770Z,96705.89
2022-09-06T22:26:41.419Z,96706.77
2022-09-06T22:29:11.659Z,96705.11
2022-09-06T22:31:41.294Z,96705.55
2022-09-06T22:34:10.628Z,96709.66
2022-09-06T22:36:39.423Z,96710.52
2022-09-06T22:39:09.810Z,96710.77
2022-09-06T22:41:38.299Z,96705.39
2022-09-06T22:44:07.432Z,96704.86
2022-09-06T22:46:37.309Z,96707.32
2022-09-06T22:49:05.950Z,96697.16
2022-09-06T22:51:34.622Z,96698.08
2022-09-06T22:54:04.772Z,96696.73
2022-09-06T22:56:33.846Z,96689.17
2022-09-06T22:59:02.306Z,96684.59
2022-09-06T23:01:32.854Z,96680.70
2022-09-06T23:04:01.443Z,96678.48
2022-09-06T23:06:29.776Z,96683.20
2022-09-06T23:08:58.133Z,96690.05
2022-09-06T23:11:28.024Z,96689.34
2022-09-06T23:13:58.097Z,96687.56
2022-09-06T23:16:28.320Z,96684.08
2022-09-06T23:18:56.997Z,96680.10
2022-09-06T23:21:26.500Z,96676.52
2022-09-06T23:23:56.391Z,96674.55
2022-09-06T23:26:28.930Z,96674.17
2022-09-06T23:28:58.314Z,96674.41
2022-09-06T23:31:29.479Z,96671.46
2022-09-06T23:34:00.137Z,96672.04
2022-09-06T23:36:28.437Z,96669.77
2022-09-06T23:38:57.578Z,96676.42
2022-09-06T23:41:26.048Z,96677.98
2022-09-06T23:43:55.084Z,96676.74
2022-09-06T23:46:23.563Z,96676.98
2022-09-06T23:48:52.263Z,96677.81
2022-09-06T23:51:20.643Z,96678.45
2022-09-06T23:53:48.960Z,96681.08
2022-09-06T23:56:17.341Z,96681.55
2022-09-06T23:58:45.827Z,96676.48
